createdAt,value
2022-09-17T00:01:21.915Z,24.454582010268133
2022-09-17T00:04:19.869Z,24.410900355870034
2022-09-17T00:07:19.651Z,24.39676806041971
2022-09-17T00:11:18.207Z,24.414754618647567
2022-09-17T00:14:17.265Z,24.43209880317236
2022-09-17T00:17:16.188Z,24.425675030739605
2022-09-17T00:21:19.089Z,24.39676806041971
2022-09-17T00:24:17.901Z,24.355013563992635
2022-09-17T00:27:16.816Z,24.34730504367626
2022-09-17T00:31:16.728Z,24.368503476121987
2022-09-17T00:34:16.413Z,24.35629831744236
2022-09-17T00:37:16.659Z,24.345377913699487
2022-09-17T00:41:17.732Z,24.32160998068439
2022-09-17T00:44:52.409Z,24.308762451916937
2022-09-17T00:47:22.665Z,24.306192946381724
2022-09-17T00:51:24.479Z,24.266365619890074
2022-09-17T00:54:17.415Z,24.302981064565028
2022-09-17T00:57:17.061Z,24.245167211304942
2022-09-17T01:01:17.275Z,24.22782306250965
2022-09-17T01:04:17.790Z,24.24131295573061
2022-09-17T01:07:30.956Z,24.22396880767201
2022-09-17T01:11:33.203Z,24.186068643821635
2022-09-17T01:14:27.651Z,24.202770408991274
2022-09-17T01:17:24.685Z,24.22204168031458
2022-09-17T01:21:32.472Z,24.182856766256826
2022-09-17T01:25:19.853Z,24.112195488593805
2022-09-17T01:31:34.766Z,24.112837863597452
2022-09-17T01:34:24.820Z,24.098063239664135
2022-09-17T01:37:28.906Z,24.069156373708758
2022-09-17T01:41:26.180Z,24.06465975094334
2022-09-17T01:44:22.599Z,24.02483253046239
2022-09-17T01:47:22.786Z,23.9728002203643
2022-09-17T01:51:22.020Z,23.976654464533567
2022-09-17T01:54:23.304Z,23.96637648044598
2022-09-17T01:57:22.523Z,23.90021198575132
2022-09-17T02:01:22.197Z,23.894430624429152
2022-09-17T02:04:23.839Z,23.89314587751869
2022-09-17T02:07:24.085Z,23.83661703146645
2022-09-17T02:11:18.769Z,23.864239076842296
2022-09-17T02:14:21.657Z,23.823127198408564
2022-09-17T02:17:28.023Z,23.77687635743505
2022-09-17T02:21:21.708Z,23.74540010414239
2022-09-17T02:24:23.565Z,23.703645907439295
2022-09-17T02:27:23.863Z,23.713923861768215
2022-09-17T02:31:16.171Z,23.693367954274528
2022-09-17T02:34:15.988Z,23.661891729949275
2022-09-17T02:37:16.052Z,23.656110383811118
2022-09-17T02:41:20.930Z,23.6072901422217
2022-09-17T02:44:25.350Z,23.58673425888419
2022-09-17T02:47:33.866Z,23.616925714139143
2022-09-17T02:51:30.362Z,23.537914054620433
2022-09-17T02:54:23.731Z,23.525709007658588
2022-09-17T02:57:22.970Z,23.542410651283355
2022-09-17T03:01:23.331Z,23.479458318279647
2022-09-17T03:04:20.441Z,23.428711061223385
2022-09-17T03:07:18.997Z,23.451194019708783
2022-09-17T03:11:16.695Z,23.429353431388517
2022-09-17T03:14:16.667Z,23.41907550929209
2022-09-17T03:17:16.671Z,23.364474067674838
2022-09-17T03:21:15.996Z,23.438346614177863
2022-09-17T03:24:16.279Z,23.349699565591074
2022-09-17T03:27:16.459Z,23.395950188831556
2022-09-17T03:31:16.500Z,23.331070849001208
2022-09-17T03:34:16.320Z,23.370255395232014
2022-09-17T03:37:16.897Z,23.363831697968998
2022-09-17T03:41:16.151Z,23.309872658913083
2022-09-17T03:44:18.620Z,23.31051502823693
2022-09-17T03:47:17.515Z,23.29895238110339
2022-09-17T03:51:16.441Z,23.268761031645408
2022-09-17T03:54:17.903Z,23.239854429875503
2022-09-17T03:57:17.328Z,23.199385202868143
2022-09-17T04:01:16.215Z,23.225079948082566
2022-09-17T04:04:17.071Z,23.244993380628237
2022-09-17T04:07:16.853Z,23.1826836223805
2022-09-17T04:11:16.791Z,23.184610727664495
2022-09-17T04:14:16.525Z,23.209663100080796
2022-09-17T04:17:20.269Z,23.195530991713532
2022-09-17T04:21:16.587Z,23.174975201653798
2022-09-17T04:24:16.553Z,23.164697308370158
2022-09-17T04:27:16.792Z,23.035581373168043
2022-09-17T04:31:16.751Z,23.08054710089573
2022-09-17T04:34:16.743Z,23.053567661585202
2022-09-17T04:37:17.508Z,23.021449291912813
2022-09-17T04:41:15.791Z,23.043289782053126
2022-09-17T04:44:16.293Z,23.013098517660183
2022-09-17T04:47:16.330Z,22.95913968716959
2022-09-17T04:51:16.163Z,22.946934718055946
2022-09-17T04:54:16.878Z,22.952073652219497
2022-09-17T04:57:16.728Z,22.952073652219497
2022-09-17T05:01:19.232Z,22.905180888765972
2022-09-17T05:04:16.461Z,22.843513729880577
2022-09-17T05:07:16.200Z,22.85314922069383
2022-09-17T05:11:16.562Z,22.845440827961376
2022-09-17T05:14:16.865Z,22.734311572172736
2022-09-17T05:17:17.191Z,22.76064855112354
2022-09-17T05:21:16.180Z,22.66493615201325
2022-09-17T05:24:16.854Z,22.70925933099652
2022-09-17T05:27:16.597Z,22.652731222471722
2022-09-17T05:31:17.073Z,22.73045738077235
2022-09-17T05:34:16.771Z,22.675856353520885
2022-09-17T05:37:17.183Z,22.65722777526971
2022-09-17T05:41:16.787Z,22.695127300563854
2022-09-17T05:44:18.181Z,22.65080412848365
2022-09-17T05:47:17.353Z,22.608408071100712
2022-09-17T05:51:17.025Z,22.628963732812554
2022-09-17T05:54:17.021Z,22.638599200842965
2022-09-17T05:57:17.072Z,22.659797234111466
2022-09-17T06:01:17.178Z,22.661081963559628
2022-09-17T06:04:18.130Z,22.63346028443275
2022-09-17T06:07:17.131Z,22.666220881534173
2022-09-17T06:11:16.391Z,22.680995272332165
2022-09-17T06:14:16.916Z,22.68163763720404
2022-09-17T06:17:21.519Z,22.69641203051224
2022-09-17T06:21:17.729Z,22.72082190298761
2022-09-17T06:24:16.669Z,22.738165763736834
2022-09-17T06:27:16.770Z,22.76064855112354
2022-09-17T06:31:15.632Z,22.764502743806315
2022-09-17T06:34:16.938Z,22.74394705138993
2022-09-17T06:37:20.576Z,22.77349586070277
2022-09-17T06:41:17.340Z,22.825527483100085
2022-09-17T06:44:17.022Z,22.833235874140883
2022-09-17T06:47:17.609Z,22.787627903340855
2022-09-17T06:51:16.477Z,22.790197365875155
2022-09-17T06:54:16.677Z,22.849295024245748
2022-09-17T06:57:17.570Z,22.877559135333378
2022-09-17T07:01:16.773Z,22.975841226511694
2022-09-17T07:04:18.917Z,23.00731721285856
2022-09-17T07:07:17.423Z,23.012456150441814
2022-09-17T07:11:16.500Z,23.039435577528728
2022-09-17T07:14:16.579Z,23.07605052712024
2022-09-17T07:17:16.609Z,23.069626850684653
2022-09-17T07:21:16.811Z,23.11780443503603
2022-09-17T07:24:16.508Z,23.174975201653798
2022-09-17T07:27:16.732Z,23.22957652924315
2022-09-17T07:31:23.872Z,23.300879488856662
2022-09-17T07:34:20.050Z,23.349699565591074
2022-09-17T07:37:18.800Z,23.37603672315754
2022-09-17T07:41:17.522Z,23.482027800404467
2022-09-17T07:44:16.871Z,23.55846992689849
2022-09-17T07:47:16.830Z,23.599581685424436
2022-09-17T07:51:18.525Z,23.657395127365543
2022-09-17T07:54:17.281Z,23.701718791132226
2022-09-17T07:57:16.871Z,23.713281489588553
2022-09-17T08:01:18.383Z,23.773022121751364
2022-09-17T08:04:17.623Z,23.80835262164619
2022-09-17T08:07:16.722Z,23.857815344609207
2022-09-17T08:11:38.228Z,23.914344203867312
2022-09-17T08:14:16.946Z,23.898927238759008
2022-09-17T08:17:16.878Z,23.944535768125206
2022-09-17T08:21:17.142Z,23.99399856532118
2022-09-17T08:24:16.320Z,24.029971525671225
2022-09-17T08:27:16.349Z,24.069156373708758
2022-09-17T08:31:18.215Z,24.171936383386857
2022-09-17T08:34:16.163Z,24.234246820936185
2022-09-17T08:37:16.374Z,24.36400683852271
2022-09-17T08:41:26.078Z,24.392913798406152
2022-09-17T08:44:23.917Z,24.411542732988256
2022-09-17T08:47:24.110Z,24.43916495337362
2022-09-17T08:51:31.463Z,24.514965508325258
2022-09-17T08:54:25.649Z,24.525243554549526
2022-09-17T08:57:25.407Z,24.567640507530086
2022-09-17T09:01:32.962Z,24.580488072950175
2022-09-17T09:05:24.551Z,24.69804338101103
2022-09-17T09:07:22.993Z,24.839366903766585
2022-09-17T09:11:22.926Z,24.99096874559482
2022-09-17T09:14:21.987Z,25.09888885511764
2022-09-17T09:17:19.910Z,25.13229272455292
2022-09-17T09:21:26.227Z,25.298027489373727
2022-09-17T09:24:23.786Z,25.332073815749027
2022-09-17T09:27:25.435Z,25.441279099753956
2022-09-17T09:31:33.547Z,25.529285806612553
2022-09-17T09:34:16.905Z,25.632067470115818
2022-09-17T09:37:23.390Z,25.669325851884878
2022-09-17T09:41:25.673Z,25.747054594132713
2022-09-17T09:44:17.091Z,25.729710158273612
2022-09-17T09:47:34.074Z,25.84983650429094
2022-09-17T09:51:31.491Z,25.97445972650894
2022-09-17T09:54:34.800Z,26.024566018733093
2022-09-17T09:57:21.675Z,26.04062573363417
2022-09-17T10:01:17.944Z,26.160110101733245
2022-09-17T10:04:19.711Z,26.37274127492128
2022-09-17T10:07:16.404Z,26.42927170087496
2022-09-17T10:11:21.952Z,26.61171104303212
2022-09-17T10:14:24.132Z,26.841687919464675
2022-09-17T10:17:20.651Z,26.96888208467426
2022-09-17T10:21:22.248Z,26.84875425729924
2022-09-17T10:24:23.805Z,26.801859480142593
2022-09-17T10:27:20.906Z,26.78066047924449
2022-09-17T10:31:17.617Z,27.13718978943689
2022-09-17T10:34:21.240Z,27.19500548524229
2022-09-17T10:37:35.676Z,27.27530512385647
2022-09-17T10:41:19.059Z,27.295219445228575
2022-09-17T10:44:17.539Z,27.168667219251894
2022-09-17T10:47:21.247Z,27.041472774017983
2022-09-17T10:51:41.027Z,26.986226757379427
2022-09-17T10:54:47.010Z,26.970166875131326
2022-09-17T10:57:40.089Z,27.001001851557884
2022-09-17T11:01:38.150Z,27.058817460597492
2022-09-17T11:04:29.638Z,27.366525599528632
2022-09-17T11:07:33.294Z,27.406354286678926
2022-09-17T11:11:30.488Z,27.409566278339845
2022-09-17T11:14:35.567Z,27.520058860697098
2022-09-17T11:17:34.375Z,27.501429287963493
2022-09-17T11:21:35.210Z,27.68965238835699
2022-09-17T11:24:33.452Z,27.710209201125327
2022-09-17T11:27:33.352Z,27.59714678852506
2022-09-17T11:31:27.601Z,27.772522068280615
2022-09-17T11:34:27.053Z,27.892008716737564
2022-09-17T11:37:22.824Z,27.944043274110662
2022-09-17T11:41:19.762Z,28.052609298522384
2022-09-17T11:44:23.597Z,28.1149224007866
2022-09-17T11:47:21.478Z,28.153466609172757
2022-09-17T11:51:29.900Z,28.130982485624646
2022-09-17T11:54:28.971Z,28.173381123253147
2022-09-17T11:57:29.678Z,28.390513850682417
2022-09-17T12:01:28.459Z,28.48109304143036
2022-09-17T12:04:31.819Z,28.547260876212476
2022-09-17T12:07:28.158Z,28.599938216065585
2022-09-17T12:11:19.352Z,28.555612159759402
2022-09-17T12:14:22.914Z,28.813859922614938
2022-09-17T12:17:24.103Z,28.907651580594028
2022-09-17T12:21:21.455Z,28.864610191267367
2022-09-17T12:24:22.504Z,28.961613948291415
2022-09-17T12:27:31.815Z,29.043199969906073
2022-09-17T12:31:26.140Z,29.076605291258694
2022-09-17T12:34:33.508Z,29.021358035670072
2022-09-17T12:37:26.146Z,29.233995913080072
2022-09-17T12:41:20.726Z,29.285388828302167
2022-09-17T12:44:33.186Z,29.297594649944312
2022-09-17T12:47:38.582Z,29.27896471230779
2022-09-17T12:51:36.924Z,29.405519881159215
2022-09-17T12:54:32.093Z,29.459482544897128
2022-09-17T12:57:29.419Z,29.476185280652224
2022-09-17T13:01:23.570Z,29.269328539168875
2022-09-17T13:04:56.845Z,28.774030617726748
2022-09-17T13:07:47.563Z,28.413640443980785
2022-09-17T13:11:43.217Z,28.274238568126748
2022-09-17T13:14:24.546Z,28.180447564783755
2022-09-17T13:17:23.743Z,27.92926802639131
2022-09-17T13:21:23.305Z,27.83483497822308
2022-09-17T13:24:18.618Z,27.971024167457653
2022-09-17T13:27:22.071Z,28.114279997452194
2022-09-17T13:31:21.265Z,28.041688449954744
2022-09-17T14:11:36.690Z,25.12458413820723
2022-09-17T14:14:45.591Z,25.127153666916364
2022-09-17T14:17:49.604Z,25.20873624125961
2022-09-17T14:21:25.957Z,25.332073815749027
2022-09-17T14:24:22.796Z,25.34813340809569
2022-09-17T14:27:46.103Z,25.547272589321892
2022-09-17T14:31:21.381Z,25.631425084357396
2022-09-17T14:34:21.366Z,25.75669039326467
2022-09-17T14:37:21.035Z,25.851763666218268
2022-09-17T14:41:23.438Z,25.88709497547243
2022-09-17T14:44:25.310Z,25.98602271456657
2022-09-17T14:47:20.485Z,26.03291707012695
2022-09-17T14:51:27.458Z,25.951333754813824
2022-09-17T14:54:19.715Z,26.012360637309122
2022-09-17T14:57:26.997Z,26.011718248858596
2022-09-17T15:01:23.311Z,26.013003025764192
2022-09-17T15:04:21.773Z,26.084308172544205
2022-09-17T15:07:19.432Z,26.141480808182678
2022-09-17T15:11:19.996Z,26.06760606106627
2022-09-17T15:14:20.737Z,25.998228092448063
2022-09-17T15:17:18.296Z,25.965466292371637
2022-09-17T15:21:28.910Z,25.90186989069416
2022-09-17T15:24:25.850Z,25.925638237620298
2022-09-17T15:27:22.939Z,25.90765137991402
2022-09-17T15:31:19.593Z,25.844055018754535
2022-09-17T15:34:16.836Z,25.8736048375883
2022-09-17T15:37:19.097Z,25.834419210345732
2022-09-17T15:41:26.311Z,25.775961994598127
2022-09-17T15:44:30.270Z,25.783670636277474
2022-09-17T15:47:52.325Z,25.705941862665714
2022-09-17T15:51:23.359Z,25.677676870586946
2022-09-17T15:54:30.174Z,25.580034238417646
2022-09-17T15:57:17.352Z,25.529928191647922
2022-09-17T16:11:17.155Z,25.317941376835005
2022-09-17T16:14:17.142Z,25.255630195141656
2022-09-17T16:17:43.729Z,25.189464760388727
2022-09-17T16:21:17.594Z,24.990326364374777
2022-09-17T16:24:16.219Z,24.895253993949154
2022-09-17T16:27:20.397Z,24.84964498673444
2022-09-17T16:31:16.901Z,24.750718486490314
2022-09-17T16:34:16.868Z,24.5785609380212
2022-09-17T16:37:16.848Z,24.492482286268295
2022-09-17T16:41:16.726Z,24.394840929392466
2022-09-17T16:44:17.652Z,24.232319693360477
2022-09-17T16:47:16.981Z,24.161016001831104
2022-09-17T16:51:21.076Z,23.94325102050534
2022-09-17T16:54:21.404Z,23.881583156143098
2022-09-17T16:57:21.668Z,23.786511947360488
2022-09-17T17:01:16.096Z,23.640693462576838
2022-09-17T17:04:16.633Z,23.467895649618367
2022-09-17T17:07:16.174Z,23.28225078228943
2022-09-17T17:11:15.836Z,23.232146004292098
2022-09-17T17:14:16.331Z,23.103029973115554
2022-09-17T17:17:16.361Z,22.947577084810472
2022-09-17T17:21:15.933Z,22.769641667638005
2022-09-17T17:24:16.174Z,22.623824816948037
2022-09-17T17:27:16.164Z,22.557661301188
2022-09-17T17:31:15.965Z,22.366237032152366
2022-09-17T17:34:16.357Z,22.344396704975317
2022-09-17T17:37:17.290Z,22.257677810706447
2022-09-17T17:41:18.828Z,21.99495218507809
2022-09-17T17:44:17.355Z,21.94934463562422
2022-09-17T17:47:16.724Z,21.786185421049595
2022-09-17T17:51:18.898Z,21.653859659334195
2022-09-17T17:54:18.118Z,21.513183454381306
2022-09-17T17:57:16.792Z,21.39755933963761
2022-09-17T18:01:19.703Z,21.339104982145365
2022-09-17T18:04:16.262Z,21.25367175816509
2022-09-17T18:07:16.093Z,21.092440855369205
2022-09-17T18:11:15.752Z,20.96140081075864
2022-09-17T18:14:16.538Z,20.872113829943647
2022-09-17T18:17:16.276Z,20.676839012643267
2022-09-17T18:21:18.331Z,20.666561402321623
2022-09-17T18:24:16.312Z,20.505973892249404
2022-09-17T18:27:16.507Z,20.33703613842372
2022-09-17T18:31:21.072Z,20.22077117498129
2022-09-17T18:34:16.840Z,20.105791053787108
2022-09-17T18:37:16.715Z,19.9953074991834
2022-09-17T18:41:16.052Z,19.90987554047397
2022-09-17T18:44:19.179Z,19.794895813254698
2022-09-17T18:47:18.181Z,19.692120761414117
2022-09-17T18:51:17.317Z,19.625317040145454
2022-09-17T18:54:17.149Z,19.48592866472618
2022-09-17T18:57:17.343Z,19.370307133311236
2022-09-17T19:01:20.779Z,19.250831705636028
2022-09-17T19:04:19.199Z,19.18724000989787
2022-09-17T19:07:18.633Z,19.083823306956855
2022-09-17T19:11:17.407Z,19.070976519791383
2022-09-17T19:14:17.280Z,18.87699025470001
2022-09-17T19:17:17.743Z,18.870566875532766
2022-09-17T19:21:18.119Z,18.771004556591286
2022-09-17T19:24:17.141Z,18.644464218574377
2022-09-17T19:27:17.198Z,18.5802306119841
2022-09-17T19:31:16.917Z,18.57188024646748
2022-09-17T19:34:17.023Z,18.475529930714764
2022-09-17T19:37:18.217Z,18.36890236721956
2022-09-17T19:41:19.045Z,18.315588632463278
2022-09-17T19:44:16.589Z,18.27512160169463
2022-09-17T19:47:16.430Z,18.11453832418338
2022-09-17T19:51:18.007Z,18.059940074574207
2022-09-17T19:54:16.764Z,18.025254144830342
2022-09-17T19:57:19.784Z,17.844759057794
2022-09-17T20:01:17.343Z,17.78309533810825
2022-09-17T20:04:18.731Z,17.765752424497713
2022-09-17T20:07:17.467Z,17.724643309181648
2022-09-17T20:11:17.590Z,17.644994451262118
2022-09-17T20:14:18.427Z,17.60260073281761
2022-09-17T20:17:16.664Z,17.55121443398757
2022-09-17T20:21:19.928Z,17.487623929478286
2022-09-17T20:24:17.013Z,17.482485304797592
2022-09-17T20:27:17.856Z,17.458719169435152
2022-09-17T20:31:18.650Z,17.385493818539636
2022-09-17T20:34:17.135Z,17.317407141783132
2022-09-17T20:37:24.903Z,17.285290802557665
2022-09-17T20:41:19.981Z,17.277582882835212
2022-09-17T20:44:19.027Z,17.254459127596874
2022-09-17T20:47:19.539Z,17.203073025945287
2022-09-17T20:51:19.432Z,17.149117650534116
2022-09-17T20:54:17.225Z,17.120855323838715
2022-09-17T20:57:17.303Z,17.02579119865559
2022-09-17T21:01:23.603Z,16.984682418615648
2022-09-17T21:04:20.280Z,16.948712251360213
2022-09-17T21:07:17.882Z,16.915953718588934
2022-09-17T21:11:18.312Z,16.865210132353333
2022-09-17T21:14:18.669Z,16.813181927832556
2022-09-17T21:17:16.748Z,16.72261438372816
2022-09-17T21:21:17.429Z,16.657097493286074
2022-09-17T21:24:17.010Z,16.62176977787749
2022-09-17T21:27:16.718Z,16.504867254055352
2022-09-17T21:31:17.813Z,16.497159400635063
2022-09-17T21:34:18.478Z,16.42008090244817
2022-09-17T21:37:16.624Z,16.387964880863727
2022-09-17T21:41:15.996Z,16.294186162902406
2022-09-17T21:44:16.462Z,16.202976817871967
2022-09-17T21:47:17.037Z,16.184991887421347
2022-09-17T21:51:18.105Z,16.09763656166033
2022-09-17T21:54:17.501Z,16.062309064098464
2022-09-17T21:57:16.724Z,16.014135225955762
2022-09-17T22:01:19.577Z,15.994223380328275
2022-09-17T22:04:17.782Z,15.883102515619612
2022-09-17T22:07:16.600Z,15.794462848291733
2022-09-17T22:11:18.686Z,15.780331894837218
2022-09-17T22:14:22.181Z,15.75528157366798
2022-09-17T22:17:17.195Z,15.708392529556658
2022-09-17T22:21:18.358Z,15.620395347804243
2022-09-17T22:24:17.549Z,15.59984127385187
2022-09-17T22:27:16.161Z,15.592133497320265
2022-09-17T22:31:19.507Z,15.612045254699478
2022-09-17T22:34:21.642Z,15.607549051038314
2022-09-17T22:37:18.893Z,15.603052847599974
2022-09-17T22:41:17.663Z,15.562587026682104
2022-09-17T22:44:18.698Z,15.535609822764036
2022-09-17T22:47:16.538Z,15.533040565666397
2022-09-17T22:51:16.281Z,15.45788982774975
2022-09-17T22:54:18.065Z,15.427701087309197
2022-09-17T22:57:16.244Z,15.488720892184938
2022-09-17T23:01:18.425Z,15.426416460279233
2022-09-17T23:04:16.846Z,15.440547358609274
2022-09-17T23:07:16.750Z,15.430270341423693
2022-09-17T23:11:18.857Z,15.437335790613725
2022-09-17T23:14:17.164Z,15.426416460279233
2022-09-17T23:17:16.757Z,15.45788982774975
2022-09-17T23:21:18.615Z,15.419351011939579
2022-09-17T23:24:19.144Z,15.430912654963686
2022-09-17T23:27:17.399Z,15.384023778494974
2022-09-17T23:31:18.420Z,15.380812212500313
2022-09-17T23:34:17.163Z,15.335850300512174
2022-09-17T23:37:19.896Z,15.374389080852051
2022-09-17T23:41:20.279Z,15.339704177809471
2022-09-17T23:44:16.531Z,15.332638736222815
2022-09-17T23:47:16.898Z,15.321077105722452
2022-09-17T23:51:16.706Z,15.278042160697805
2022-09-17T23:54:16.370Z,15.285107598032573
2022-09-17T23:57:16.266Z,15.252349665937071
